Altenburg, Missouri
Current Conditions -  °F | °C
As of 5:52 AM on Sunday 23 Nov 2014 (Local Time) from KMDH Reporting Station
Scattered Clouds Scattered Clouds  
Wind Chill: 12°   Ceiling: Unl
Heat Index: 12°   Visibility: 10mi
Dew Point:   Wind: 9mph
Humidity: 75%   Direction: 150°SSE
Pressure: 29.8"   Gusts: NA
Location:  37.63°N, 89.59°W
Report Text: KMDH 231152Z AUTO 15008KT 10SM SCT041 12/08 A2980 RMK AO2 SLP091 T01220078 10128 20106 56023
Loading
Personal Weather Stations






























Interactive Weather Map New forecast layout! Learn more

10-Day Weather Forecast

Advertisements
Track Severe Weather on mobile